Terminal Aerodrome Forecast
Issued by NWS

Current Version | Previous Version | Graphics & Text | Print | Product List | Glossary On
Versions: 1 2 3 4 5 6 7 8 9 10 11 12 13 14 15 16
000
FTUS41 KPBZ 270531
TAFHLG
TAF
KHLG 270531Z 2706/2806 18005KT 5SM -RA BR OVC050
      TEMPO 2706/2707 2SM RA BR OVC020
     FM270900 VRB04KT 5SM -RA BR OVC020
     FM271600 22010KT P6SM BKN050
     FM280300 23007KT 6SM -RA OVC040
      AMD NOT SKED=

USA.gov is the U.S. government's official web portal to all federal, state and local government web resources and services.